Time;durP1;ratioP1;P1;durP2;ratioP2;P2;SDS_P1;SDS_P2;PMS_P1;PMS_P2;Temp;Humidity;BMP_temperature;BMP_pressure;BME280_temperature;BME280_humidity;BME280_pressure;Samples;Min_cycle;Max_cycle;Signal;HPM_P1;HPM_P2
2023/04/01 00:00:24;;;;;;;8.70;5.93;;;10.20;99.90;;;;;;5036431;28;20060;-77
2023/04/01 00:02:50;;;;;;;9.05;6.38;;;10.30;99.90;;;;;;5020307;28;20056;-79
2023/04/01 00:05:19;;;;;;;10.13;6.90;;;10.30;99.90;;;;;;5053254;28;20091;-78
2023/04/01 00:07:45;;;;;;;10.07;6.47;;;10.30;99.90;;;;;;5019894;28;20094;-79
2023/04/01 00:10:12;;;;;;;12.15;7.65;;;10.20;99.90;;;;;;5036570;28;20194;-76
2023/04/01 00:12:38;;;;;;;11.70;8.02;;;10.30;99.90;;;;;;5053430;28;20089;-76
2023/04/01 00:15:11;;;;;;;10.18;7.30;;;10.20;99.90;;;;;;5053397;28;20396;-76
2023/04/01 00:17:37;;;;;;;9.95;6.80;;;10.20;99.90;;;;;;5035954;28;20041;-77
2023/04/01 00:20:04;;;;;;;9.75;7.05;;;10.20;99.90;;;;;;5052688;28;20187;-78
2023/04/01 00:22:30;;;;;;;10.50;7.43;;;10.20;99.90;;;;;;5052573;28;20084;-77
2023/04/01 00:24:56;;;;;;;11.02;7.70;;;10.20;99.90;;;;;;5053008;28;20084;-76
2023/04/01 00:27:21;;;;;;;12.07;7.80;;;10.20;99.90;;;;;;5036379;28;20059;-76
2023/04/01 00:29:48;;;;;;;12.13;7.30;;;10.20;99.90;;;;;;5052499;28;20433;-77
2023/04/01 00:32:14;;;;;;;10.40;6.93;;;10.20;99.90;;;;;;5036300;28;20052;-77
2023/04/01 00:34:40;;;;;;;10.90;6.60;;;10.30;99.90;;;;;;5036111;28;20087;-77
2023/04/01 00:37:07;;;;;;;13.98;7.97;;;10.20;99.90;;;;;;5036187;28;20049;-78
2023/04/01 00:39:34;;;;;;;12.10;8.35;;;10.20;99.90;;;;;;5053076;28;20056;-77
2023/04/01 00:42:01;;;;;;;9.73;7.22;;;10.20;99.90;;;;;;5052624;28;20056;-78
2023/04/01 00:44:31;;;;;;;11.02;6.90;;;10.20;99.90;;;;;;5053135;28;20045;-78
2023/04/01 00:46:56;;;;;;;13.18;7.15;;;10.20;99.90;;;;;;5052657;28;20439;-78
2023/04/01 00:49:26;;;;;;;11.25;6.53;;;10.20;99.90;;;;;;5035433;28;20110;-79
2023/04/01 00:51:56;;;;;;;9.63;6.82;;;10.20;99.90;;;;;;5052781;28;20106;-78
2023/04/01 00:54:25;;;;;;;9.45;6.00;;;10.20;99.90;;;;;;5052454;28;20052;-77
2023/04/01 00:57:13;;;;;;;9.75;6.20;;;10.20;99.90;;;;;;5055077;28;20063;-78
2023/04/01 00:59:52;;;;;;;9.57;6.30;;;10.20;99.90;;;;;;5056455;28;20431;-77
2023/04/01 01:02:18;;;;;;;8.45;5.82;;;10.20;99.90;;;;;;5056195;28;20049;-77
2023/04/01 01:04:45;;;;;;;10.65;6.72;;;10.20;99.90;;;;;;5055959;28;20053;-77
2023/04/01 01:07:34;;;;;;;10.68;6.88;;;10.20;99.90;;;;;;5056307;28;20044;-78
2023/04/01 01:10:29;;;;;;;8.65;6.28;;;10.20;99.90;;;;;;5038951;28;20045;-79
2023/04/01 01:13:20;;;;;;;10.73;6.93;;;10.20;99.90;;;;;;5055565;28;20432;-77
2023/04/01 01:15:58;;;;;;;10.38;6.40;;;10.20;99.90;;;;;;5056045;28;20053;-78
2023/04/01 01:18:40;;;;;;;9.88;6.10;;;10.20;99.90;;;;;;5055715;28;20045;-77
2023/04/01 01:21:19;;;;;;;9.18;6.45;;;10.10;99.90;;;;;;5055299;28;20167;-77
2023/04/01 01:23:54;;;;;;;10.35;5.93;;;10.20;99.90;;;;;;5055387;28;20447;-76
2023/04/01 01:26:35;;;;;;;9.23;5.00;;;10.10;99.90;;;;;;5055540;28;20084;-77
2023/04/01 01:29:28;;;;;;;9.93;5.80;;;10.10;99.90;;;;;;5055411;28;20144;-77
2023/04/01 01:32:19;;;;;;;9.10;6.15;;;10.10;99.90;;;;;;5055475;28;20102;-75
2023/04/01 01:35:05;;;;;;;9.90;5.90;;;10.00;99.90;;;;;;5038041;28;20049;-76
2023/04/01 01:37:32;;;;;;;9.88;6.25;;;10.10;99.90;;;;;;5005190;28;20056;-76
2023/04/01 01:40:06;;;;;;;9.38;6.50;;;10.00;99.90;;;;;;5038829;28;20111;-76
2023/04/01 01:42:36;;;;;;;9.00;6.13;;;10.00;99.90;;;;;;5055316;28;20057;-76
2023/04/01 01:45:05;;;;;;;10.18;6.28;;;10.00;99.90;;;;;;5054709;28;20049;-76
2023/04/01 01:47:33;;;;;;;9.75;5.97;;;10.00;99.90;;;;;;5054939;28;20040;-75
2023/04/01 01:50:01;;;;;;;9.23;5.10;;;9.90;99.90;;;;;;5054478;28;20061;-78
2023/04/01 01:52:30;;;;;;;9.23;5.90;;;10.00;99.90;;;;;;5054631;28;20059;-77
2023/04/01 01:54:58;;;;;;;8.18;5.40;;;10.00;99.90;;;;;;5038557;28;20560;-77
2023/04/01 01:57:28;;;;;;;9.45;6.10;;;10.00;99.90;;;;;;5054741;28;20080;-77
2023/04/01 02:00:00;;;;;;;8.52;5.38;;;9.90;99.90;;;;;;5055084;28;20146;-78
2023/04/01 02:02:31;;;;;;;10.48;6.32;;;10.00;99.90;;;;;;5055330;28;20056;-77
2023/04/01 02:04:57;;;;;;;10.88;6.28;;;10.00;99.90;;;;;;5055128;28;20159;-77
2023/04/01 02:07:32;;;;;;;11.85;6.47;;;10.00;99.90;;;;;;5054588;28;20485;-78
2023/04/01 02:09:57;;;;;;;10.18;6.43;;;10.00;99.90;;;;;;5054821;28;20516;-78
2023/04/01 02:12:24;;;;;;;10.38;7.05;;;10.10;99.90;;;;;;5056291;28;20053;-78
2023/04/01 02:15:05;;;;;;;10.20;6.93;;;10.10;99.90;;;;;;5054636;28;20053;-78
2023/04/01 02:17:33;;;;;;;10.05;7.00;;;10.00;99.90;;;;;;5054345;28;20475;-75
2023/04/01 02:20:01;;;;;;;11.73;7.43;;;10.00;99.90;;;;;;5054128;28;20676;-77
2023/04/01 02:22:30;;;;;;;10.45;7.00;;;10.00;99.90;;;;;;5044404;28;20393;-78
2023/04/01 02:25:07;;;;;;;11.85;7.75;;;10.10;99.90;;;;;;5034237;28;20128;-76
2023/04/01 02:27:34;;;;;;;13.20;8.27;;;10.00;99.90;;;;;;5034471;28;20061;-75
2023/04/01 02:30:00;;;;;;;12.25;8.07;;;10.00;99.90;;;;;;5001005;28;20056;-77
2023/04/01 02:32:28;;;;;;;12.45;8.27;;;10.00;99.90;;;;;;5033959;28;20080;-77
2023/04/01 02:34:54;;;;;;;12.60;8.18;;;10.00;99.90;;;;;;5033888;28;20045;-77
2023/04/01 02:37:21;;;;;;;12.05;8.52;;;10.00;99.90;;;;;;5034551;28;20052;-77
2023/04/01 02:39:47;;;;;;;12.98;8.93;;;10.00;99.90;;;;;;5034319;28;20107;-75
2023/04/01 02:42:14;;;;;;;12.73;8.90;;;10.00;99.90;;;;;;5034324;28;20054;-77
2023/04/01 02:44:40;;;;;;;13.05;8.70;;;10.00;99.90;;;;;;5033907;28;20493;-76
2023/04/01 02:47:06;;;;;;;12.77;9.00;;;10.00;99.90;;;;;;5017237;28;20048;-75
2023/04/01 02:49:31;;;;;;;13.95;9.48;;;10.00;99.90;;;;;;5016834;28;20127;-77
2023/04/01 02:51:57;;;;;;;12.35;9.02;;;10.00;99.90;;;;;;5034296;28;20124;-76
2023/04/01 02:54:23;;;;;;;14.02;9.38;;;10.00;99.90;;;;;;5033629;28;20492;-76
2023/04/01 02:56:49;;;;;;;13.18;9.13;;;10.00;99.90;;;;;;5033662;28;20053;-77
2023/04/01 02:59:14;;;;;;;15.23;9.27;;;9.90;99.90;;;;;;5034031;28;20385;-76
2023/04/01 03:01:40;;;;;;;12.50;8.77;;;9.90;99.90;;;;;;5033657;28;20099;-77
2023/04/01 03:04:06;;;;;;;11.60;8.23;;;9.90;99.90;;;;;;5017232;28;20133;-78
2023/04/01 03:06:32;;;;;;;13.80;9.20;;;9.90;99.90;;;;;;5033702;28;20088;-77
2023/04/01 03:08:58;;;;;;;13.57;9.48;;;9.90;99.90;;;;;;4984644;28;20071;-76
2023/04/01 03:11:23;;;;;;;13.82;8.35;;;9.90;99.90;;;;;;5017370;28;20128;-76
2023/04/01 03:13:49;;;;;;;13.85;8.70;;;9.90;99.90;;;;;;5000700;28;20049;-76
2023/04/01 03:16:16;;;;;;;13.70;8.45;;;9.90;99.90;;;;;;5016975;28;20060;-77
2023/04/01 03:18:42;;;;;;;13.43;8.27;;;9.90;99.90;;;;;;5033186;28;20095;-77
2023/04/01 03:21:22;;;;;;;12.13;8.15;;;9.90;99.90;;;;;;5017051;28;20049;-76
2023/04/01 03:23:48;;;;;;;13.05;8.93;;;9.90;99.90;;;;;;5016659;28;20446;-77
2023/04/01 03:26:15;;;;;;;14.48;9.20;;;9.90;99.90;;;;;;5000842;28;20134;-77
2023/04/01 03:28:41;;;;;;;13.50;8.57;;;9.90;99.90;;;;;;5016935;28;20392;-76
2023/04/01 03:31:07;;;;;;;12.90;8.20;;;9.90;99.90;;;;;;5033075;28;20443;-77
2023/04/01 03:33:33;;;;;;;12.55;8.02;;;9.90;99.90;;;;;;5033180;28;20401;-78
2023/04/01 03:35:59;;;;;;;12.77;9.02;;;9.90;99.90;;;;;;5016896;28;20054;-75
2023/04/01 03:38:25;;;;;;;17.60;9.65;;;9.90;99.90;;;;;;5016923;28;20142;-76
2023/04/01 03:40:50;;;;;;;13.00;8.63;;;9.90;99.90;;;;;;5016880;28;20049;-78
2023/04/01 03:43:16;;;;;;;13.50;9.13;;;9.90;99.90;;;;;;5016841;28;20132;-76
2023/04/01 03:45:50;;;;;;;12.65;8.15;;;9.90;99.90;;;;;;5016591;28;20041;-77
2023/04/01 03:48:16;;;;;;;11.98;8.43;;;9.90;99.90;;;;;;5032665;28;20058;-76
2023/04/01 03:50:43;;;;;;;13.90;8.75;;;9.90;99.90;;;;;;5016611;28;20041;-76
2023/04/01 03:53:08;;;;;;;13.73;8.98;;;9.90;99.90;;;;;;5049292;28;20511;-76
2023/04/01 03:55:36;;;;;;;12.40;9.07;;;9.90;99.90;;;;;;5052844;28;20045;-75
2023/04/01 03:58:03;;;;;;;13.55;8.77;;;9.90;99.90;;;;;;5052922;28;20057;-76
2023/04/01 04:00:29;;;;;;;11.65;8.23;;;9.90;99.90;;;;;;5052790;28;20144;-75
2023/04/01 04:02:56;;;;;;;11.75;8.82;;;9.90;99.90;;;;;;5052699;28;20055;-75
2023/04/01 04:05:23;;;;;;;12.70;8.95;;;9.90;99.90;;;;;;5035639;28;20041;-75
2023/04/01 04:07:50;;;;;;;12.80;8.13;;;9.90;99.90;;;;;;5052789;28;20409;-76
2023/04/01 04:10:16;;;;;;;13.73;9.20;;;9.90;99.90;;;;;;5052585;28;20041;-75
2023/04/01 04:12:42;;;;;;;12.48;8.43;;;9.90;99.90;;;;;;5052844;28;20052;-75
2023/04/01 04:15:09;;;;;;;13.35;9.68;;;9.90;99.90;;;;;;5052708;28;20049;-74
2023/04/01 04:17:35;;;;;;;15.82;10.50;;;9.90;99.90;;;;;;5036094;28;20101;-75
2023/04/01 04:20:01;;;;;;;14.70;10.82;;;9.90;99.90;;;;;;5052290;28;20060;-75
2023/04/01 04:22:27;;;;;;;14.57;10.40;;;9.90;99.90;;;;;;5041947;28;20405;-74
2023/04/01 04:24:53;;;;;;;15.65;11.00;;;9.80;99.90;;;;;;5033496;28;20095;-75
2023/04/01 04:27:18;;;;;;;15.80;11.57;;;9.90;99.90;;;;;;5032821;28;20049;-75
2023/04/01 04:29:44;;;;;;;17.40;11.85;;;9.90;99.90;;;;;;5015714;28;20075;-75
2023/04/01 04:32:10;;;;;;;16.15;11.50;;;9.90;99.90;;;;;;5002895;28;20049;-76
2023/04/01 04:34:36;;;;;;;17.55;12.48;;;9.90;99.90;;;;;;5036620;28;20053;-75
2023/04/01 04:37:01;;;;;;;19.58;14.00;;;9.90;99.90;;;;;;5036063;28;20049;-74
2023/04/01 04:39:27;;;;;;;18.98;13.98;;;9.90;99.90;;;;;;5019628;28;20045;-74
2023/04/01 04:41:53;;;;;;;18.95;13.75;;;9.80;99.90;;;;;;5019874;28;20056;-74
2023/04/01 04:44:19;;;;;;;20.05;14.52;;;9.80;99.90;;;;;;5020034;28;20053;-75
2023/04/01 04:46:45;;;;;;;19.63;15.00;;;9.90;99.90;;;;;;5020067;28;20045;-76
2023/04/01 04:49:13;;;;;;;23.42;17.20;;;9.90;99.90;;;;;;5003000;28;20053;-75
2023/04/01 04:51:39;;;;;;;24.80;18.10;;;9.80;99.90;;;;;;5023651;28;20061;-75
2023/04/01 04:54:06;;;;;;;22.27;16.65;;;9.80;99.90;;;;;;5055261;28;20045;-75
2023/04/01 04:56:32;;;;;;;22.45;16.88;;;9.80;99.90;;;;;;5055960;28;20102;-76
2023/04/01 04:58:58;;;;;;;26.42;18.38;;;9.90;99.90;;;;;;5055485;28;20044;-76
2023/04/01 05:01:24;;;;;;;24.05;17.67;;;9.90;99.90;;;;;;5039320;28;20128;-76
2023/04/01 05:03:51;;;;;;;23.75;17.52;;;9.90;99.90;;;;;;5039242;28;20094;-76
2023/04/01 05:06:18;;;;;;;20.85;15.75;;;9.90;99.90;;;;;;5038909;28;20045;-77
2023/04/01 05:08:45;;;;;;;23.10;16.58;;;9.90;99.90;;;;;;5038811;28;20037;-76
2023/04/01 05:11:16;;;;;;;23.30;17.90;;;9.90;99.90;;;;;;5055422;28;20416;-75
2023/04/01 05:13:42;;;;;;;22.97;17.57;;;9.90;99.90;;;;;;5055339;28;20072;-75
2023/04/01 05:16:13;;;;;;;23.80;17.80;;;9.80;99.90;;;;;;5038945;28;20079;-76
2023/04/01 05:18:39;;;;;;;27.20;19.48;;;9.80;99.90;;;;;;5038767;28;20057;-75
2023/04/01 05:21:08;;;;;;;29.48;20.92;;;9.80;99.90;;;;;;5038851;28;20059;-74
2023/04/01 05:23:33;;;;;;;25.73;19.48;;;9.80;99.90;;;;;;5054949;28;20063;-75
2023/04/01 05:26:04;;;;;;;35.28;22.27;;;9.80;99.90;;;;;;5055044;28;20061;-75
2023/04/01 05:28:30;;;;;;;32.03;21.70;;;9.80;99.90;;;;;;5038663;28;20084;-75
2023/04/01 05:30:59;;;;;;;26.08;20.15;;;9.80;99.90;;;;;;5038605;28;20087;-75
2023/04/01 05:33:25;;;;;;;30.27;22.10;;;9.80;99.90;;;;;;5055199;28;20397;-75
2023/04/01 05:35:51;;;;;;;27.48;21.45;;;9.80;99.90;;;;;;5054875;28;20048;-74
2023/04/01 05:38:16;;;;;;;26.38;19.92;;;9.80;99.90;;;;;;5038494;28;20063;-75
2023/04/01 05:40:42;;;;;;;35.83;22.73;;;9.80;99.90;;;;;;5038254;28;20049;-75
2023/04/01 05:43:08;;;;;;;31.08;21.90;;;9.80;99.90;;;;;;5037942;28;20132;-75
2023/04/01 05:45:34;;;;;;;26.15;20.45;;;9.80;99.90;;;;;;5038476;28;20134;-75
2023/04/01 05:48:00;;;;;;;28.45;20.27;;;9.80;99.90;;;;;;5038148;28;20576;-75
2023/04/01 05:50:26;;;;;;;27.30;19.98;;;9.80;99.90;;;;;;5071470;28;20132;-75
2023/04/01 05:52:52;;;;;;;26.42;19.45;;;9.80;99.90;;;;;;5054775;28;20142;-74
2023/04/01 05:55:18;;;;;;;25.63;18.55;;;9.80;99.90;;;;;;5055606;28;20057;-75
2023/04/01 05:57:52;;;;;;;25.17;19.08;;;9.80;99.90;;;;;;5054399;28;20055;-76
2023/04/01 06:00:19;;;;;;;26.02;19.02;;;9.80;99.90;;;;;;5054432;28;20504;-76
2023/04/01 06:02:46;;;;;;;24.35;17.90;;;9.90;99.90;;;;;;5054709;28;20059;-75
2023/04/01 06:05:24;;;;;;;23.48;17.50;;;9.80;99.90;;;;;;5054217;28;20053;-75
2023/04/01 06:07:59;;;;;;;26.90;18.02;;;9.90;99.90;;;;;;5054816;28;20048;-76
2023/04/01 06:10:43;;;;;;;23.25;16.27;;;9.90;99.90;;;;;;5054531;28;20136;-75
2023/04/01 06:13:46;;;;;;;27.00;17.55;;;9.90;99.90;;;;;;5054343;28;20056;-75
2023/04/01 06:16:25;;;;;;;20.80;15.57;;;9.90;99.90;;;;;;5054155;28;20045;-76
2023/04/01 06:19:10;;;;;;;22.42;16.75;;;9.90;99.90;;;;;;5054320;28;20051;-76
2023/04/01 06:21:55;;;;;;;26.73;16.50;;;9.90;99.90;;;;;;5037753;28;20134;-75
2023/04/01 06:24:45;;;;;;;20.77;15.55;;;9.90;99.90;;;;;;5054200;28;20045;-76
2023/04/01 06:27:25;;;;;;;20.60;15.25;;;9.90;99.90;;;;;;5053691;28;20053;-75
2023/04/01 06:30:10;;;;;;;18.50;13.90;;;9.90;99.90;;;;;;5054054;28;20045;-75
2023/04/01 06:32:54;;;;;;;16.70;13.38;;;10.00;99.90;;;;;;5037568;28;20074;-76
2023/04/01 06:35:38;;;;;;;19.98;14.52;;;10.00;99.90;;;;;;5053788;28;20051;-76
2023/04/01 06:38:19;;;;;;;19.80;13.52;;;10.10;99.90;;;;;;5037343;28;20041;-75
2023/04/01 06:41:03;;;;;;;17.90;13.73;;;10.00;99.90;;;;;;5053916;28;20065;-75
2023/04/01 06:44:07;;;;;;;19.13;13.00;;;10.00;99.90;;;;;;5053900;28;20407;-74
2023/04/01 06:46:35;;;;;;;19.60;13.18;;;10.10;99.90;;;;;;5054806;28;20052;-75
2023/04/01 06:49:20;;;;;;;17.08;12.05;;;10.10;99.90;;;;;;5053433;28;20045;-75
2023/04/01 06:52:02;;;;;;;18.15;12.95;;;10.10;99.90;;;;;;5036936;28;20084;-74
2023/04/01 06:54:34;;;;;;;;;;;10.10;99.90;;;;;;5036645;28;20053;-76
2023/04/01 06:57:05;;;;;;;14.55;10.65;;;10.20;99.90;;;;;;5086907;28;20363;-76
2023/04/01 06:59:36;;;;;;;16.70;11.63;;;10.20;99.90;;;;;;5036798;28;20129;-76
2023/04/01 07:02:16;;;;;;;15.02;11.27;;;10.20;99.90;;;;;;5053387;28;20053;-76
2023/04/01 07:04:48;;;;;;;15.25;10.93;;;10.20;99.90;;;;;;5052949;28;20088;-76
2023/04/01 07:07:27;;;;;;;13.30;10.40;;;10.20;99.90;;;;;;5036750;28;20080;-75
2023/04/01 07:10:01;;;;;;;13.65;10.23;;;10.30;99.90;;;;;;5053314;28;20040;-76
2023/04/01 07:12:35;;;;;;;14.50;9.98;;;10.30;99.90;;;;;;5036794;28;20045;-77
2023/04/01 07:15:22;;;;;;;13.73;9.27;;;10.30;99.90;;;;;;5053177;28;20480;-76
2023/04/01 07:17:53;;;;;;;13.90;9.77;;;10.30;99.90;;;;;;5036639;28;20061;-76
2023/04/01 07:20:36;;;;;;;12.75;8.75;;;10.30;99.90;;;;;;5069990;28;20088;-76
2023/04/01 07:23:15;;;;;;;12.68;8.60;;;10.30;99.90;;;;;;5054249;28;20055;-77
2023/04/01 07:25:45;;;;;;;14.80;9.40;;;10.30;99.90;;;;;;5053068;28;20048;-75
2023/04/01 07:28:14;;;;;;;11.93;8.23;;;10.30;99.90;;;;;;5052870;28;20055;-76
2023/04/01 07:31:01;;;;;;;11.82;7.72;;;10.20;99.90;;;;;;5053025;28;20051;-77
2023/04/01 07:33:36;;;;;;;15.25;8.88;;;10.20;99.90;;;;;;5052864;28;20456;-76
2023/04/01 07:36:22;;;;;;;22.90;13.27;;;10.20;99.90;;;;;;5036017;28;20076;-76
2023/04/01 07:39:05;;;;;;;15.15;10.18;;;10.20;99.90;;;;;;5052883;28;20111;-76
2023/04/01 07:42:05;;;;;;;20.02;11.43;;;10.20;99.90;;;;;;5036398;28;20045;-76
2023/04/01 07:44:36;;;;;;;17.70;12.38;;;10.20;99.90;;;;;;5053000;28;20443;-76
2023/04/01 07:47:29;;;;;;;25.50;15.45;;;10.20;99.90;;;;;;5052777;28;20484;-75
2023/04/01 07:50:15;;;;;;;29.70;18.55;;;10.20;99.90;;;;;;5052047;28;20064;-75
2023/04/01 07:52:44;;;;;;;30.10;16.98;;;10.20;99.90;;;;;;5051423;28;20084;-76
2023/04/01 07:55:25;;;;;;;19.08;12.85;;;10.20;99.90;;;;;;5035888;28;20104;-75
2023/04/01 07:57:57;;;;;;;17.55;11.10;;;10.20;99.90;;;;;;5052688;28;20048;-76
2023/04/01 08:00:51;;;;;;;19.98;11.93;;;10.20;99.90;;;;;;5052648;28;20059;-77
2023/04/01 08:03:31;;;;;;;15.65;9.40;;;10.20;99.90;;;;;;5036088;28;20072;-76
2023/04/01 08:06:03;;;;;;;14.25;9.50;;;10.20;99.90;;;;;;5055693;28;20502;-76
2023/04/01 08:09:25;;;;;;;30.38;21.42;;;10.30;99.90;;;;;;5056794;28;20052;-75
2023/04/01 08:12:35;;;;;;;9.38;6.10;;;10.30;99.90;;;;;;5053890;28;20053;-77
2023/04/01 08:15:21;;;;;;;9.55;6.07;;;10.30;99.90;;;;;;4960528;28;20058;-77
2023/04/01 08:18:24;;;;;;;7.03;4.20;;;10.40;99.90;;;;;;4960752;28;20105;-77
2023/04/01 08:21:43;;;;;;;8.25;5.32;;;10.50;99.90;;;;;;5045711;28;20134;-76
2023/04/01 08:24:24;;;;;;;7.10;4.30;;;10.50;99.90;;;;;;4960446;28;20061;-77
2023/04/01 08:26:53;;;;;;;6.72;3.85;;;10.60;99.90;;;;;;4960695;28;20074;-77
2023/04/01 08:29:25;;;;;;;5.85;2.85;;;10.70;99.90;;;;;;5012273;28;20061;-77
2023/04/01 08:32:06;;;;;;;5.93;3.22;;;10.80;99.90;;;;;;5036428;28;20049;-76
2023/04/01 08:34:41;;;;;;;6.53;2.70;;;10.90;99.90;;;;;;5036424;28;20042;-78
2023/04/01 08:37:19;;;;;;;4.57;2.33;;;10.90;99.90;;;;;;5020587;28;20367;-77
2023/04/01 08:39:51;;;;;;;6.70;3.38;;;10.90;99.90;;;;;;5053338;28;20076;-76
2023/04/01 08:42:36;;;;;;;4.60;2.35;;;10.90;99.90;;;;;;5036330;28;20455;-78
2023/04/01 08:45:20;;;;;;;6.22;3.95;;;11.00;99.90;;;;;;5035819;28;20045;-76
2023/04/01 08:48:22;;;;;;;6.88;3.78;;;11.00;99.90;;;;;;5036342;28;20049;-77
2023/04/01 08:50:56;;;;;;;8.68;5.55;;;11.00;99.90;;;;;;5035811;28;20065;-74
2023/04/01 08:53:31;;;;;;;9.30;6.50;;;11.10;99.90;;;;;;5054258;28;20047;-76
2023/04/01 08:56:22;;;;;;;8.80;6.20;;;11.10;99.90;;;;;;5056118;28;20044;-77
2023/04/01 08:58:54;;;;;;;9.02;7.13;;;11.10;99.90;;;;;;5055955;28;20060;-77
2023/04/01 09:01:48;;;;;;;10.13;7.53;;;11.20;99.90;;;;;;5055731;28;20045;-76
2023/04/01 09:04:48;;;;;;;10.15;6.82;;;11.20;99.90;;;;;;5055851;28;20056;-79
2023/04/01 09:07:30;;;;;;;11.07;8.07;;;11.30;99.90;;;;;;5029644;28;20405;-76
2023/04/01 09:10:25;;;;;;;9.93;7.60;;;11.20;99.90;;;;;;5055442;28;20072;-79
2023/04/01 09:13:28;;;;;;;12.00;8.88;;;11.30;99.90;;;;;;5055290;28;20110;-76
2023/04/01 09:16:20;;;;;;;11.55;9.27;;;11.30;99.90;;;;;;5056447;28;20052;-76
2023/04/01 09:18:58;;;;;;;11.00;8.70;;;11.40;99.90;;;;;;5055490;28;20536;-76
2023/04/01 09:21:46;;;;;;;11.48;9.38;;;11.40;99.90;;;;;;5037188;28;20381;-75
2023/04/01 09:24:47;;;;;;;11.70;9.77;;;11.50;99.90;;;;;;5019373;28;20045;-77
2023/04/01 09:27:30;;;;;;;11.68;9.32;;;11.50;99.90;;;;;;5031802;28;20058;-76
2023/04/01 09:30:30;;;;;;;10.70;8.55;;;11.40;99.90;;;;;;5018913;28;20042;-78
2023/04/01 09:33:15;;;;;;;11.48;9.02;;;11.60;99.90;;;;;;5025247;28;20053;-76
2023/04/01 09:36:18;;;;;;;10.98;8.75;;;11.70;99.90;;;;;;5018672;28;20049;-77
2023/04/01 09:39:16;;;;;;;10.77;7.80;;;11.70;99.90;;;;;;5035459;28;20076;-77
2023/04/01 09:42:08;;;;;;;10.82;8.75;;;11.80;99.90;;;;;;5019111;28;20431;-77
2023/04/01 09:44:37;;;;;;;10.52;8.35;;;11.70;99.90;;;;;;5007767;28;20057;-77
2023/04/01 09:47:21;;;;;;;11.18;8.80;;;11.60;99.90;;;;;;5035304;28;20095;-78
2023/04/01 09:50:24;;;;;;;10.10;8.38;;;11.70;99.90;;;;;;5034175;28;20053;-77
2023/04/01 09:53:14;;;;;;;11.05;8.32;;;11.90;99.90;;;;;;5048999;28;20057;-77
2023/04/01 09:56:01;;;;;;;9.02;5.70;;;11.90;99.90;;;;;;5055409;28;20045;-78
2023/04/01 09:58:46;;;;;;;10.45;8.13;;;12.10;99.90;;;;;;5055503;28;20053;-78
2023/04/01 10:01:36;;;;;;;9.95;7.90;;;12.10;99.90;;;;;;5038363;28;20472;-77
2023/04/01 10:04:17;;;;;;;9.90;7.35;;;12.10;99.90;;;;;;5054819;28;20098;-76
2023/04/01 10:06:58;;;;;;;9.43;7.30;;;12.10;99.90;;;;;;5038283;28;20049;-77
2023/04/01 10:10:11;;;;;;;9.93;7.15;;;12.00;99.90;;;;;;5054689;28;20048;-79
2023/04/01 10:13:07;;;;;;;9.00;7.18;;;12.00;99.90;;;;;;5038049;28;20056;-77
2023/04/01 10:15:55;;;;;;;8.50;7.28;;;12.00;99.90;;;;;;5054969;28;20049;-79
2023/04/01 10:18:30;;;;;;;8.63;6.57;;;12.10;99.90;;;;;;5054642;28;20064;-77
2023/04/01 10:21:27;;;;;;;8.50;7.15;;;12.00;99.90;;;;;;5054574;28;20075;-77
2023/04/01 10:24:11;;;;;;;8.90;7.43;;;12.00;99.90;;;;;;5034631;28;20055;-80
2023/04/01 10:26:58;;;;;;;8.57;6.75;;;12.00;99.90;;;;;;5034425;28;20061;-78
2023/04/01 10:29:30;;;;;;;8.88;7.15;;;11.90;99.90;;;;;;5016712;28;20667;-78
2023/04/01 10:32:20;;;;;;;8.48;6.68;;;11.80;99.90;;;;;;5034245;28;20049;-78
2023/04/01 10:34:54;;;;;;;9.27;7.72;;;11.90;99.90;;;;;;5034264;28;20045;-78
2023/04/01 10:37:52;;;;;;;10.00;7.68;;;11.90;99.90;;;;;;5034429;28;20049;-78
2023/04/01 10:40:29;;;;;;;9.38;7.80;;;11.80;99.90;;;;;;5034294;28;20053;-79
2023/04/01 10:43:14;;;;;;;9.77;7.18;;;11.80;99.90;;;;;;5034077;28;20481;-78
2023/04/01 10:46:06;;;;;;;10.20;8.70;;;11.90;99.90;;;;;;5034799;28;20052;-77
2023/04/01 10:48:54;;;;;;;12.13;10.25;;;11.80;99.90;;;;;;5033949;28;20052;-77
2023/04/01 10:51:53;;;;;;;14.73;13.15;;;11.70;99.90;;;;;;5051635;28;20509;-76
2023/04/01 10:54:30;;;;;;;15.23;13.43;;;11.60;99.90;;;;;;5053934;28;20407;-76
2023/04/01 10:57:02;;;;;;;15.63;13.38;;;11.60;99.90;;;;;;5037317;28;20049;-76
2023/04/01 10:59:46;;;;;;;16.08;13.90;;;11.50;99.90;;;;;;5037563;28;20045;-77
2023/04/01 11:02:33;;;;;;;17.40;14.35;;;11.50;99.90;;;;;;5054045;28;20045;-76
2023/04/01 11:05:35;;;;;;;11.25;8.98;;;11.60;99.90;;;;;;5037332;28;20053;-77
2023/04/01 11:08:04;;;;;;;;;;;11.60;99.90;;;;;;5054201;28;20048;-76
2023/04/01 11:10:45;;;;;;;10.00;7.25;;;11.40;99.90;;;;;;5053631;28;19924;-77
2023/04/01 11:13:38;;;;;;;8.48;6.78;;;11.20;99.90;;;;;;5036724;28;20045;-77
2023/04/01 11:16:17;;;;;;;9.45;7.72;;;11.10;99.90;;;;;;5053529;28;20136;-78
2023/04/01 11:19:18;;;;;;;9.02;7.05;;;11.10;99.90;;;;;;5053581;28;20135;-77
2023/04/01 11:22:13;;;;;;;8.15;6.75;;;11.10;99.90;;;;;;5053255;28;20055;-77
2023/04/01 11:25:21;;;;;;;7.47;6.25;;;11.00;99.90;;;;;;5053609;28;20105;-76
2023/04/01 11:28:03;;;;;;;7.80;6.10;;;10.90;99.90;;;;;;5020893;28;20045;-77
2023/04/01 11:31:08;;;;;;;9.82;6.88;;;10.90;99.90;;;;;;5053212;28;20053;-75
2023/04/01 11:33:40;;;;;;;7.72;6.03;;;10.80;99.90;;;;;;5052713;28;20132;-76
2023/04/01 11:36:20;;;;;;;7.40;5.75;;;10.80;99.90;;;;;;5053185;28;20047;-76
2023/04/01 11:39:00;;;;;;;8.18;5.90;;;10.70;99.90;;;;;;5053437;28;20049;-77
2023/04/01 11:41:46;;;;;;;8.18;6.43;;;10.80;99.90;;;;;;5053165;28;20408;-75
2023/04/01 11:44:27;;;;;;;9.07;7.05;;;10.70;99.90;;;;;;5053381;28;20072;-76
2023/04/01 11:47:35;;;;;;;9.65;7.95;;;10.70;99.90;;;;;;5052785;28;20045;-76
2023/04/01 11:50:28;;;;;;;7.95;6.53;;;10.70;99.90;;;;;;5052751;28;20085;-77
2023/04/01 11:53:33;;;;;;;8.50;5.43;;;10.60;99.90;;;;;;5053098;28;20091;-76
2023/04/01 11:56:29;;;;;;;8.23;6.03;;;10.60;99.90;;;;;;5036131;28;20527;-77
2023/04/01 11:59:40;;;;;;;7.78;5.50;;;10.50;99.90;;;;;;5054030;28;20075;-76
2023/04/01 12:02:24;;;;;;;8.70;5.65;;;10.50;99.90;;;;;;5053085;28;20047;-75
2023/04/01 12:05:02;;;;;;;10.27;7.43;;;10.50;99.90;;;;;;5052797;28;20049;-77
2023/04/01 12:07:37;;;;;;;9.40;7.18;;;10.50;99.90;;;;;;5036307;28;20044;-77
2023/04/01 12:10:33;;;;;;;13.85;10.63;;;10.40;99.90;;;;;;5052892;28;20041;-75
2023/04/01 12:13:07;;;;;;;17.33;13.88;;;10.40;99.90;;;;;;5053343;28;20084;-78
2023/04/01 12:16:00;;;;;;;7.13;5.30;;;10.40;99.90;;;;;;5054658;28;20151;-77
2023/04/01 12:18:46;;;;;;;7.72;5.30;;;10.50;99.90;;;;;;5054135;28;20049;-77
2023/04/01 12:21:37;;;;;;;6.20;4.32;;;10.50;99.90;;;;;;5052512;28;20049;-77
2023/04/01 12:24:06;;;;;;;7.13;4.43;;;10.50;99.90;;;;;;5052810;28;20053;-75
2023/04/01 12:27:13;;;;;;;8.10;6.00;;;10.60;99.90;;;;;;5052533;28;20102;-77
2023/04/01 12:30:14;;;;;;;7.68;5.25;;;10.60;99.90;;;;;;5052487;28;20132;-77
2023/04/01 12:33:05;;;;;;;10.85;6.75;;;10.60;99.90;;;;;;5052730;28;20057;-78
2023/04/01 12:36:04;;;;;;;25.35;15.57;;;10.50;99.90;;;;;;5052514;28;20059;-78
2023/04/01 12:38:42;;;;;;;13.85;9.52;;;10.60;99.90;;;;;;5052727;28;20052;-79
2023/04/01 12:41:41;;;;;;;6.05;4.13;;;10.60;99.90;;;;;;5052575;28;20059;-78
2023/04/01 12:44:10;;;;;;;8.50;6.72;;;10.60;99.90;;;;;;5052408;28;20049;-77
2023/04/01 12:46:42;;;;;;;6.50;4.97;;;10.40;99.90;;;;;;5052581;28;20152;-77
2023/04/01 12:49:55;;;;;;;7.25;4.97;;;10.40;99.90;;;;;;5052513;28;20049;-78
2023/04/01 12:52:20;;;;;;;6.50;4.50;;;10.40;99.90;;;;;;4965292;28;20093;-77
2023/04/01 12:55:22;;;;;;;9.15;7.00;;;10.40;99.90;;;;;;5036484;28;20053;-78
2023/04/01 12:57:56;;;;;;;5.70;4.00;;;10.50;99.90;;;;;;5036756;28;20061;-78
2023/04/01 13:00:41;;;;;;;8.20;5.70;;;10.40;99.90;;;;;;5043911;28;20735;-77
2023/04/01 13:03:31;;;;;;;6.60;4.50;;;10.20;99.90;;;;;;5038123;28;20124;-78
2023/04/01 13:06:18;;;;;;;6.80;4.90;;;10.20;99.90;;;;;;5056292;28;20060;-78
2023/04/01 13:09:07;;;;;;;5.97;4.45;;;10.10;99.90;;;;;;5055977;28;20037;-74
2023/04/01 13:11:46;;;;;;;7.35;4.65;;;10.10;99.90;;;;;;5055697;28;20045;-78
2023/04/01 13:14:49;;;;;;;6.13;4.50;;;10.10;99.90;;;;;;5055794;28;20045;-75
2023/04/01 13:17:27;;;;;;;6.22;4.50;;;10.20;99.90;;;;;;5056083;28;20053;-74
2023/04/01 13:20:05;;;;;;;6.85;5.28;;;10.10;99.90;;;;;;5055786;28;20095;-75
2023/04/01 13:23:17;;;;;;;7.97;5.72;;;10.00;99.90;;;;;;5044649;28;20482;-78
2023/04/01 13:26:00;;;;;;;7.80;5.40;;;10.10;99.90;;;;;;4993181;28;20099;-78
2023/04/01 13:28:30;;;;;;;8.40;5.28;;;10.10;99.90;;;;;;5019540;28;20049;-77
2023/04/01 13:31:08;;;;;;;7.07;5.07;;;10.10;99.90;;;;;;5035992;28;20041;-78
2023/04/01 13:34:19;;;;;;;5.97;4.22;;;10.10;99.90;;;;;;5035721;28;20054;-77